Archival Weather

Sydney Intl

Sydney, Australia (YSSY)

Report from: Friday, September 22, 2023 12:45 AM AEST
Current time: Sunday, February 25, 2024 2:47 AM AEDT

Current weather – Weather history – Daily summaries
Weather forecast

Present weatherRain showers
Temperature13.0°C (55.4°F)
Dew point11.0°C (51.8°F)
Winds 15 kts (7.7 m/s, 17.3 mph) West-Southwest (240°)
Visibility6.2 mi. (10 km)
Clouds Scattered clouds 2,900 ft. (884 m)
Ceiling: Broken clouds 4,100 ft. (1,250 m)
Overcast 5,100 ft. (1,554 m)
Altimeter30.30 in.Hg (1026 mB)
Relative humidity88 %
Density altitude-483 ft. (-147 m)
Remarks Fully automated report
Special weather observation
Flight conditions Visual Meteorological Conditions
Raw dataSPAU31 KWBC 211450 SPECI YSSY 211445Z AUTO 24015KT 9999 SHRA SCT029 BKN041 OVC051 13/11 Q1026
An error has occurred. This application may no longer respond until reloaded. Reload 🗙